sensor_id;sensor_type;location;lat;lon;timestamp;pressure;altitude;pressure_sealevel;temperature;humidity
4590;BME280;2307;48.448;9.216;2023-08-17T00:00:24;95580.56;;;20.64;100.00
4590;BME280;2307;48.448;9.216;2023-08-17T00:02:50;95572.06;;;20.76;100.00
4590;BME280;2307;48.448;9.216;2023-08-17T00:05:17;95576.78;;;20.65;100.00
4590;BME280;2307;48.448;9.216;2023-08-17T00:07:44;95579.63;;;20.55;100.00
4590;BME280;2307;48.448;9.216;2023-08-17T00:10:10;95581.97;;;20.43;100.00
4590;BME280;2307;48.448;9.216;2023-08-17T00:12:37;95589.16;;;20.47;100.00
4590;BME280;2307;48.448;9.216;2023-08-17T00:15:03;95587.78;;;20.31;100.00
4590;BME280;2307;48.448;9.216;2023-08-17T00:17:31;95583.06;;;20.42;100.00
4590;BME280;2307;48.448;9.216;2023-08-17T00:19:59;95575.66;;;20.34;100.00
4590;BME280;2307;48.448;9.216;2023-08-17T00:22:26;95575.09;;;20.37;100.00
4590;BME280;2307;48.448;9.216;2023-08-17T00:24:52;95577.13;;;20.26;100.00
4590;BME280;2307;48.448;9.216;2023-08-17T00:27:19;95575.88;;;20.37;100.00
4590;BME280;2307;48.448;9.216;2023-08-17T00:29:45;95581.97;;;20.43;100.00
4590;BME280;2307;48.448;9.216;2023-08-17T00:32:11;95577.47;;;20.57;100.00
4590;BME280;2307;48.448;9.216;2023-08-17T00:34:39;95570.59;;;20.51;100.00
4590;BME280;2307;48.448;9.216;2023-08-17T00:37:06;95578.19;;;20.44;100.00
4590;BME280;2307;48.448;9.216;2023-08-17T00:39:32;95578.34;;;20.34;100.00
4590;BME280;2307;48.448;9.216;2023-08-17T00:41:58;95577.06;;;20.31;100.00
4590;BME280;2307;48.448;9.216;2023-08-17T00:44:25;95580.88;;;20.25;100.00
4590;BME280;2307;48.448;9.216;2023-08-17T00:46:51;95574.84;;;20.14;100.00
4590;BME280;2307;48.448;9.216;2023-08-17T00:49:18;95571.81;;;20.21;100.00
4590;BME280;2307;48.448;9.216;2023-08-17T00:51:46;95567.75;;;20.05;100.00
4590;BME280;2307;48.448;9.216;2023-08-17T00:54:12;95570.66;;;20.08;100.00
4590;BME280;2307;48.448;9.216;2023-08-17T00:56:39;95560.41;;;20.10;100.00
4590;BME280;2307;48.448;9.216;2023-08-17T00:59:05;95562.38;;;20.05;100.00
4590;BME280;2307;48.448;9.216;2023-08-17T01:01:32;95560.84;;;20.17;100.00
4590;BME280;2307;48.448;9.216;2023-08-17T01:03:58;95551.97;;;20.03;100.00
4590;BME280;2307;48.448;9.216;2023-08-17T01:06:25;95554.56;;;19.90;100.00
4590;BME280;2307;48.448;9.216;2023-08-17T01:08:53;95554.19;;;19.96;100.00
4590;BME280;2307;48.448;9.216;2023-08-17T01:11:22;95557.91;;;20.00;100.00
4590;BME280;2307;48.448;9.216;2023-08-17T01:13:52;95554.19;;;20.15;100.00
4590;BME280;2307;48.448;9.216;2023-08-17T01:16:21;95549.84;;;20.00;100.00
4590;BME280;2307;48.448;9.216;2023-08-17T01:18:51;95542.41;;;19.97;100.00
4590;BME280;2307;48.448;9.216;2023-08-17T01:21:17;95546.00;;;20.06;100.00
4590;BME280;2307;48.448;9.216;2023-08-17T01:23:50;95541.97;;;20.28;100.00
4590;BME280;2307;48.448;9.216;2023-08-17T01:26:16;95548.47;;;20.22;100.00
4590;BME280;2307;48.448;9.216;2023-08-17T01:28:43;95545.78;;;20.22;100.00
4590;BME280;2307;48.448;9.216;2023-08-17T01:31:11;95551.88;;;20.27;100.00
4590;BME280;2307;48.448;9.216;2023-08-17T01:33:40;95546.44;;;20.13;100.00
4590;BME280;2307;48.448;9.216;2023-08-17T01:36:07;95545.94;;;20.11;100.00
4590;BME280;2307;48.448;9.216;2023-08-17T01:38:37;95550.06;;;20.04;100.00
4590;BME280;2307;48.448;9.216;2023-08-17T01:41:08;95547.19;;;20.00;100.00
4590;BME280;2307;48.448;9.216;2023-08-17T01:43:38;95547.91;;;20.06;100.00
4590;BME280;2307;48.448;9.216;2023-08-17T01:46:04;95542.91;;;19.99;100.00
4590;BME280;2307;48.448;9.216;2023-08-17T01:48:31;95542.31;;;20.02;100.00
4590;BME280;2307;48.448;9.216;2023-08-17T01:50:57;95542.16;;;20.12;100.00
4590;BME280;2307;48.448;9.216;2023-08-17T01:53:23;95556.44;;;19.89;100.00
4590;BME280;2307;48.448;9.216;2023-08-17T01:55:50;95553.81;;;19.66;100.00
4590;BME280;2307;48.448;9.216;2023-08-17T01:58:17;95550.00;;;19.48;100.00
4590;BME280;2307;48.448;9.216;2023-08-17T02:00:44;95549.28;;;19.42;100.00
4590;BME280;2307;48.448;9.216;2023-08-17T02:03:10;95554.63;;;19.42;100.00
4590;BME280;2307;48.448;9.216;2023-08-17T02:05:37;95550.31;;;19.46;100.00
4590;BME280;2307;48.448;9.216;2023-08-17T02:08:03;95551.25;;;19.55;100.00
4590;BME280;2307;48.448;9.216;2023-08-17T02:10:30;95550.00;;;19.48;100.00
4590;BME280;2307;48.448;9.216;2023-08-17T02:12:56;95547.78;;;19.55;100.00
4590;BME280;2307;48.448;9.216;2023-08-17T02:15:24;95542.88;;;19.62;100.00
4590;BME280;2307;48.448;9.216;2023-08-17T02:17:51;95544.03;;;19.56;100.00
4590;BME280;2307;48.448;9.216;2023-08-17T02:20:17;95540.06;;;19.72;100.00
4590;BME280;2307;48.448;9.216;2023-08-17T02:22:43;95536.16;;;19.83;100.00
4590;BME280;2307;48.448;9.216;2023-08-17T02:25:10;95538.59;;;19.80;100.00
4590;BME280;2307;48.448;9.216;2023-08-17T02:27:36;95532.66;;;19.83;100.00
4590;BME280;2307;48.448;9.216;2023-08-17T02:30:03;95522.66;;;19.70;100.00
4590;BME280;2307;48.448;9.216;2023-08-17T02:32:31;95526.72;;;19.67;100.00
4590;BME280;2307;48.448;9.216;2023-08-17T02:34:57;95520.72;;;19.75;100.00
4590;BME280;2307;48.448;9.216;2023-08-17T02:37:23;95526.59;;;19.77;100.00
4590;BME280;2307;48.448;9.216;2023-08-17T02:39:50;95519.13;;;19.74;100.00
4590;BME280;2307;48.448;9.216;2023-08-17T02:42:16;95512.97;;;19.74;100.00
4590;BME280;2307;48.448;9.216;2023-08-17T02:44:42;95517.53;;;19.73;100.00
4590;BME280;2307;48.448;9.216;2023-08-17T02:47:09;95517.59;;;19.68;100.00
4590;BME280;2307;48.448;9.216;2023-08-17T02:49:37;95516.66;;;19.59;100.00
4590;BME280;2307;48.448;9.216;2023-08-17T02:52:03;95517.88;;;19.67;100.00
4590;BME280;2307;48.448;9.216;2023-08-17T02:54:30;95515.16;;;19.48;100.00
4590;BME280;2307;48.448;9.216;2023-08-17T02:56:57;95507.38;;;19.28;100.00
4590;BME280;2307;48.448;9.216;2023-08-17T02:59:23;95505.63;;;19.18;100.00
4590;BME280;2307;48.448;9.216;2023-08-17T03:01:49;95500.06;;;19.09;100.00
4590;BME280;2307;48.448;9.216;2023-08-17T03:04:16;95499.00;;;19.10;100.00
4590;BME280;2307;48.448;9.216;2023-08-17T03:06:44;95500.94;;;19.05;100.00
4590;BME280;2307;48.448;9.216;2023-08-17T03:09:10;95491.78;;;19.11;100.00
4590;BME280;2307;48.448;9.216;2023-08-17T03:11:37;95492.66;;;19.25;100.00
4590;BME280;2307;48.448;9.216;2023-08-17T03:14:03;95489.84;;;19.35;100.00
4590;BME280;2307;48.448;9.216;2023-08-17T03:16:29;95486.81;;;19.47;100.00
4590;BME280;2307;48.448;9.216;2023-08-17T03:18:56;95481.06;;;19.53;100.00
4590;BME280;2307;48.448;9.216;2023-08-17T03:21:22;95482.41;;;19.56;100.00
4590;BME280;2307;48.448;9.216;2023-08-17T03:23:50;95473.34;;;19.52;100.00
4590;BME280;2307;48.448;9.216;2023-08-17T03:26:16;95477.22;;;19.41;100.00
4590;BME280;2307;48.448;9.216;2023-08-17T03:28:43;95477.75;;;19.38;100.00
4590;BME280;2307;48.448;9.216;2023-08-17T03:31:09;95481.31;;;19.33;100.00
4590;BME280;2307;48.448;9.216;2023-08-17T03:33:36;95490.66;;;19.36;100.00
4590;BME280;2307;48.448;9.216;2023-08-17T03:36:02;95488.28;;;19.34;100.00
4590;BME280;2307;48.448;9.216;2023-08-17T03:38:29;95489.28;;;19.38;100.00
4590;BME280;2307;48.448;9.216;2023-08-17T03:40:56;95485.31;;;19.36;100.00
4590;BME280;2307;48.448;9.216;2023-08-17T03:43:23;95490.66;;;19.36;100.00
4590;BME280;2307;48.448;9.216;2023-08-17T03:45:50;95488.97;;;19.21;100.00
4590;BME280;2307;48.448;9.216;2023-08-17T03:48:17;95494.69;;;19.15;100.00
4590;BME280;2307;48.448;9.216;2023-08-17T03:50:43;95493.25;;;18.98;100.00
4590;BME280;2307;48.448;9.216;2023-08-17T03:53:09;95483.31;;;18.75;100.00
4590;BME280;2307;48.448;9.216;2023-08-17T03:55:36;95483.28;;;18.80;100.00
4590;BME280;2307;48.448;9.216;2023-08-17T03:58:04;95491.66;;;18.97;100.00
4590;BME280;2307;48.448;9.216;2023-08-17T04:00:30;95486.34;;;19.16;100.00
4590;BME280;2307;48.448;9.216;2023-08-17T04:02:56;95498.44;;;19.14;100.00
4590;BME280;2307;48.448;9.216;2023-08-17T04:05:23;95497.13;;;19.11;100.00
4590;BME280;2307;48.448;9.216;2023-08-17T04:07:49;95500.50;;;19.22;100.00
4590;BME280;2307;48.448;9.216;2023-08-17T04:10:15;95497.28;;;19.20;100.00
4590;BME280;2307;48.448;9.216;2023-08-17T04:12:42;95507.09;;;19.05;100.00
4590;BME280;2307;48.448;9.216;2023-08-17T04:15:10;95503.31;;;19.06;100.00
4590;BME280;2307;48.448;9.216;2023-08-17T04:17:36;95509.72;;;19.10;100.00
4590;BME280;2307;48.448;9.216;2023-08-17T04:20:03;95511.53;;;18.91;100.00
4590;BME280;2307;48.448;9.216;2023-08-17T04:22:30;95518.81;;;19.09;100.00
4590;BME280;2307;48.448;9.216;2023-08-17T04:24:56;95508.50;;;18.98;100.00
4590;BME280;2307;48.448;9.216;2023-08-17T04:27:23;95504.19;;;19.02;100.00
4590;BME280;2307;48.448;9.216;2023-08-17T04:29:49;95510.66;;;19.20;100.00
4590;BME280;2307;48.448;9.216;2023-08-17T04:32:17;95504.81;;;19.18;100.00
4590;BME280;2307;48.448;9.216;2023-08-17T04:34:44;95514.91;;;19.02;100.00
4590;BME280;2307;48.448;9.216;2023-08-17T04:37:11;95509.59;;;18.97;100.00
4590;BME280;2307;48.448;9.216;2023-08-17T04:39:37;95511.88;;;19.08;100.00
4590;BME280;2307;48.448;9.216;2023-08-17T04:42:04;95515.75;;;19.21;100.00
4590;BME280;2307;48.448;9.216;2023-08-17T04:44:31;95513.81;;;19.27;100.00
4590;BME280;2307;48.448;9.216;2023-08-17T04:46:57;95516.47;;;19.27;100.00
4590;BME280;2307;48.448;9.216;2023-08-17T04:49:25;95509.25;;;19.27;100.00
4590;BME280;2307;48.448;9.216;2023-08-17T04:51:51;95516.88;;;19.39;100.00
4590;BME280;2307;48.448;9.216;2023-08-17T04:54:18;95521.72;;;19.37;100.00
4590;BME280;2307;48.448;9.216;2023-08-17T04:56:44;95522.06;;;19.30;100.00
4590;BME280;2307;48.448;9.216;2023-08-17T04:59:11;95531.69;;;19.31;100.00
4590;BME280;2307;48.448;9.216;2023-08-17T05:01:37;95522.19;;;19.44;100.00
4590;BME280;2307;48.448;9.216;2023-08-17T05:04:04;95527.88;;;19.37;100.00
4590;BME280;2307;48.448;9.216;2023-08-17T05:06:32;95530.75;;;19.46;100.00
4590;BME280;2307;48.448;9.216;2023-08-17T05:08:59;95527.06;;;19.60;100.00
4590;BME280;2307;48.448;9.216;2023-08-17T05:11:25;95526.09;;;19.75;100.00
4590;BME280;2307;48.448;9.216;2023-08-17T05:13:52;95526.66;;;19.72;100.00
4590;BME280;2307;48.448;9.216;2023-08-17T05:16:18;95534.25;;;19.84;100.00
4590;BME280;2307;48.448;9.216;2023-08-17T05:18:44;95532.44;;;19.79;100.00
4590;BME280;2307;48.448;9.216;2023-08-17T05:21:11;95534.53;;;19.82;100.00
4590;BME280;2307;48.448;9.216;2023-08-17T05:23:38;95539.75;;;19.74;100.00
4590;BME280;2307;48.448;9.216;2023-08-17T05:26:05;95540.47;;;19.79;100.00
4590;BME280;2307;48.448;9.216;2023-08-17T05:28:31;95533.53;;;19.78;100.00
4590;BME280;2307;48.448;9.216;2023-08-17T05:31:02;95545.78;;;19.84;100.00
4590;BME280;2307;48.448;9.216;2023-08-17T05:33:29;95543.69;;;19.81;100.00
4590;BME280;2307;48.448;9.216;2023-08-17T05:35:55;95544.41;;;19.87;100.00
4590;BME280;2307;48.448;9.216;2023-08-17T05:38:21;95546.06;;;19.83;100.00
4590;BME280;2307;48.448;9.216;2023-08-17T05:40:53;95539.19;;;19.95;100.00
4590;BME280;2307;48.448;9.216;2023-08-17T05:43:20;95544.06;;;19.93;100.00
4590;BME280;2307;48.448;9.216;2023-08-17T05:45:46;95551.03;;;19.94;100.00
4590;BME280;2307;48.448;9.216;2023-08-17T05:48:12;95549.84;;;20.00;100.00
4590;BME280;2307;48.448;9.216;2023-08-17T05:50:40;95555.00;;;19.97;100.00
4590;BME280;2307;48.448;9.216;2023-08-17T05:53:07;95554.78;;;19.93;100.00
4590;BME280;2307;48.448;9.216;2023-08-17T05:55:33;95554.41;;;20.00;100.00
4590;BME280;2307;48.448;9.216;2023-08-17T05:58:01;95556.78;;;20.01;100.00
4590;BME280;2307;48.448;9.216;2023-08-17T06:00:28;95556.44;;;20.08;100.00
4590;BME280;2307;48.448;9.216;2023-08-17T06:02:55;95556.44;;;20.08;100.00
4590;BME280;2307;48.448;9.216;2023-08-17T06:05:26;95556.88;;;20.15;100.00
4590;BME280;2307;48.448;9.216;2023-08-17T06:07:53;95560.28;;;20.21;100.00
4590;BME280;2307;48.448;9.216;2023-08-17T06:10:20;95567.03;;;20.18;100.00
4590;BME280;2307;48.448;9.216;2023-08-17T06:12:50;95562.81;;;20.12;100.00
4590;BME280;2307;48.448;9.216;2023-08-17T06:15:17;95568.97;;;20.12;100.00
4590;BME280;2307;48.448;9.216;2023-08-17T06:17:44;95575.16;;;20.13;100.00
4590;BME280;2307;48.448;9.216;2023-08-17T06:20:11;95567.75;;;20.05;100.00
4590;BME280;2307;48.448;9.216;2023-08-17T06:22:38;95567.75;;;20.05;100.00
4590;BME280;2307;48.448;9.216;2023-08-17T06:25:05;95563.97;;;20.06;100.00
4590;BME280;2307;48.448;9.216;2023-08-17T06:27:32;95568.28;;;20.07;100.00
4590;BME280;2307;48.448;9.216;2023-08-17T06:29:59;95572.31;;;20.04;100.00
4590;BME280;2307;48.448;9.216;2023-08-17T06:32:29;95561.22;;;20.11;100.00
4590;BME280;2307;48.448;9.216;2023-08-17T06:34:56;95561.75;;;19.94;100.00
4590;BME280;2307;48.448;9.216;2023-08-17T06:37:22;95565.63;;;19.83;100.00
4590;BME280;2307;48.448;9.216;2023-08-17T06:39:49;95556.38;;;19.94;100.00
4590;BME280;2307;48.448;9.216;2023-08-17T06:42:15;95552.81;;;19.80;100.00
4590;BME280;2307;48.448;9.216;2023-08-17T06:44:42;95552.22;;;19.83;100.00
4590;BME280;2307;48.448;9.216;2023-08-17T06:47:08;95555.50;;;19.99;100.00
4590;BME280;2307;48.448;9.216;2023-08-17T06:49:36;95558.97;;;19.99;100.00
4590;BME280;2307;48.448;9.216;2023-08-17T06:52:02;95557.47;;;20.12;100.00
4590;BME280;2307;48.448;9.216;2023-08-17T06:54:29;95555.13;;;20.05;100.00
4590;BME280;2307;48.448;9.216;2023-08-17T06:56:57;95555.94;;;19.87;100.00
4590;BME280;2307;48.448;9.216;2023-08-17T06:59:23;95552.16;;;19.88;100.00
4590;BME280;2307;48.448;9.216;2023-08-17T07:01:50;95554.69;;;19.98;100.00
4590;BME280;2307;48.448;9.216;2023-08-17T07:04:16;95554.06;;;20.06;100.00
4590;BME280;2307;48.448;9.216;2023-08-17T07:06:44;95559.28;;;20.17;100.00
4590;BME280;2307;48.448;9.216;2023-08-17T07:09:10;95554.91;;;20.21;100.00
4590;BME280;2307;48.448;9.216;2023-08-17T07:11:37;95560.75;;;20.28;100.00
4590;BME280;2307;48.448;9.216;2023-08-17T07:14:04;95553.94;;;20.35;100.00
4590;BME280;2307;48.448;9.216;2023-08-17T07:16:31;95555.81;;;20.35;100.00
4590;BME280;2307;48.448;9.216;2023-08-17T07:18:57;95555.28;;;20.51;100.00
4590;BME280;2307;48.448;9.216;2023-08-17T07:21:24;95556.22;;;20.60;100.00
4590;BME280;2307;48.448;9.216;2023-08-17T07:23:53;95558.31;;;20.63;100.00
4590;BME280;2307;48.448;9.216;2023-08-17T07:26:20;95561.09;;;20.72;100.00
4590;BME280;2307;48.448;9.216;2023-08-17T07:28:46;95563.69;;;20.77;100.00
4590;BME280;2307;48.448;9.216;2023-08-17T07:31:13;95568.28;;;20.90;100.00
4590;BME280;2307;48.448;9.216;2023-08-17T07:33:39;95561.25;;;20.94;100.00
4590;BME280;2307;48.448;9.216;2023-08-17T07:36:06;95565.75;;;20.99;100.00
4590;BME280;2307;48.448;9.216;2023-08-17T07:38:32;95563.56;;;21.01;100.00
4590;BME280;2307;48.448;9.216;2023-08-17T07:41:00;95565.91;;;20.89;100.00
4590;BME280;2307;48.448;9.216;2023-08-17T07:43:27;95565.53;;;20.95;100.00
4590;BME280;2307;48.448;9.216;2023-08-17T07:45:54;95567.31;;;21.00;100.00
4590;BME280;2307;48.448;9.216;2023-08-17T07:48:20;95576.97;;;21.01;100.00
4590;BME280;2307;48.448;9.216;2023-08-17T07:50:48;95575.88;;;20.88;100.00
4590;BME280;2307;48.448;9.216;2023-08-17T07:53:14;95569.72;;;21.01;100.00
4590;BME280;2307;48.448;9.216;2023-08-17T07:55:40;95572.56;;;21.10;100.00
4590;BME280;2307;48.448;9.216;2023-08-17T07:58:08;95571.75;;;21.09;100.00
4590;BME280;2307;48.448;9.216;2023-08-17T08:00:35;95566.41;;;21.23;100.00
4590;BME280;2307;48.448;9.216;2023-08-17T08:03:01;95569.50;;;21.30;100.00
4590;BME280;2307;48.448;9.216;2023-08-17T08:05:28;95562.63;;;21.38;100.00
4590;BME280;2307;48.448;9.216;2023-08-17T08:07:54;95567.91;;;21.43;100.00
4590;BME280;2307;48.448;9.216;2023-08-17T08:10:20;95573.16;;;21.48;100.00
4590;BME280;2307;48.448;9.216;2023-08-17T08:12:47;95565.31;;;21.51;100.00
4590;BME280;2307;48.448;9.216;2023-08-17T08:15:15;95568.69;;;21.57;100.00
4590;BME280;2307;48.448;9.216;2023-08-17T08:17:41;95560.63;;;21.57;100.00
4590;BME280;2307;48.448;9.216;2023-08-17T08:20:08;95562.81;;;21.55;100.00
4590;BME280;2307;48.448;9.216;2023-08-17T08:22:34;95557.94;;;21.57;100.00
4590;BME280;2307;48.448;9.216;2023-08-17T08:25:01;95571.38;;;21.57;100.00
4590;BME280;2307;48.448;9.216;2023-08-17T08:27:27;95574.25;;;21.60;100.00
4590;BME280;2307;48.448;9.216;2023-08-17T08:29:54;95571.00;;;21.50;100.00
4590;BME280;2307;48.448;9.216;2023-08-17T08:32:21;95576.88;;;21.52;100.00
4590;BME280;2307;48.448;9.216;2023-08-17T08:34:48;95575.06;;;21.61;100.00
4590;BME280;2307;48.448;9.216;2023-08-17T08:37:14;95570.47;;;21.48;100.00
4590;BME280;2307;48.448;9.216;2023-08-17T08:39:50;95568.22;;;21.28;100.00
4590;BME280;2307;48.448;9.216;2023-08-17T08:42:17;95573.88;;;21.40;100.00
4590;BME280;2307;48.448;9.216;2023-08-17T08:44:43;95577.16;;;21.50;100.00
4590;BME280;2307;48.448;9.216;2023-08-17T08:47:10;95580.75;;;21.59;100.00
4590;BME280;2307;48.448;9.216;2023-08-17T08:49:39;95584.41;;;21.77;100.00
4590;BME280;2307;48.448;9.216;2023-08-17T08:52:06;95587.09;;;21.77;100.00
4590;BME280;2307;48.448;9.216;2023-08-17T08:54:34;95582.72;;;21.81;100.00
4590;BME280;2307;48.448;9.216;2023-08-17T08:57:01;95590.69;;;21.86;100.00
4590;BME280;2307;48.448;9.216;2023-08-17T08:59:29;95582.13;;;21.84;100.00
4590;BME280;2307;48.448;9.216;2023-08-17T09:01:57;95579.03;;;21.77;100.00
4590;BME280;2307;48.448;9.216;2023-08-17T09:04:24;95582.13;;;21.84;100.00
4590;BME280;2307;48.448;9.216;2023-08-17T09:06:52;95575.56;;;21.90;100.00
4590;BME280;2307;48.448;9.216;2023-08-17T09:09:19;95580.84;;;21.95;100.00
4590;BME280;2307;48.448;9.216;2023-08-17T09:11:46;95572.75;;;21.95;100.00
4590;BME280;2307;48.448;9.216;2023-08-17T09:14:12;95570.88;;;21.96;100.00
4590;BME280;2307;48.448;9.216;2023-08-17T09:16:38;95567.16;;;22.05;100.00
4590;BME280;2307;48.448;9.216;2023-08-17T09:19:05;95570.53;;;22.11;100.00
4590;BME280;2307;48.448;9.216;2023-08-17T09:21:32;95570.94;;;22.04;100.00
4590;BME280;2307;48.448;9.216;2023-08-17T09:24:00;95570.47;;;22.02;100.00
4590;BME280;2307;48.448;9.216;2023-08-17T09:26:30;95567.09;;;21.97;100.00
4590;BME280;2307;48.448;9.216;2023-08-17T09:28:56;95567.66;;;22.07;100.00
4590;BME280;2307;48.448;9.216;2023-08-17T09:31:24;95568.72;;;22.20;100.00
4590;BME280;2307;48.448;9.216;2023-08-17T09:33:50;95565.78;;;22.30;100.00
4590;BME280;2307;48.448;9.216;2023-08-17T09:36:19;95565.38;;;22.37;100.00
4590;BME280;2307;48.448;9.216;2023-08-17T09:38:47;95565.63;;;22.49;100.00
4590;BME280;2307;48.448;9.216;2023-08-17T09:41:15;95565.56;;;22.62;100.00
4590;BME280;2307;48.448;9.216;2023-08-17T09:43:41;95563.81;;;22.80;100.00
4590;BME280;2307;48.448;9.216;2023-08-17T09:46:08;95556.78;;;22.93;100.00
4590;BME280;2307;48.448;9.216;2023-08-17T09:48:35;95560.31;;;23.02;100.00
4590;BME280;2307;48.448;9.216;2023-08-17T09:51:02;95564.69;;;23.20;100.00
4590;BME280;2307;48.448;9.216;2023-08-17T09:53:34;95556.00;;;23.32;100.00
4590;BME280;2307;48.448;9.216;2023-08-17T09:56:00;95561.34;;;23.54;100.00
4590;BME280;2307;48.448;9.216;2023-08-17T09:58:28;95558.72;;;23.71;100.00
4590;BME280;2307;48.448;9.216;2023-08-17T10:00:55;95552.06;;;23.86;100.00
4590;BME280;2307;48.448;9.216;2023-08-17T10:03:22;95548.75;;;23.89;100.00
4590;BME280;2307;48.448;9.216;2023-08-17T10:05:52;95545.13;;;23.93;100.00
4590;BME280;2307;48.448;9.216;2023-08-17T10:08:22;95553.69;;;24.04;100.00
4590;BME280;2307;48.448;9.216;2023-08-17T10:10:49;95551.94;;;24.08;100.00
4590;BME280;2307;48.448;9.216;2023-08-17T10:13:19;95552.00;;;24.25;100.00
4590;BME280;2307;48.448;9.216;2023-08-17T10:15:53;95554.72;;;24.51;100.00
4590;BME280;2307;48.448;9.216;2023-08-17T10:18:22;95555.94;;;24.70;100.00
4590;BME280;2307;48.448;9.216;2023-08-17T10:20:56;95551.50;;;24.83;100.00
4590;BME280;2307;48.448;9.216;2023-08-17T10:23:27;95552.16;;;24.89;100.00
4590;BME280;2307;48.448;9.216;2023-08-17T10:25:53;95556.06;;;25.00;100.00
4590;BME280;2307;48.448;9.216;2023-08-17T10:28:21;95555.25;;;25.16;100.00
4590;BME280;2307;48.448;9.216;2023-08-17T10:30:47;95559.97;;;25.28;100.00
4590;BME280;2307;48.448;9.216;2023-08-17T10:33:15;95563.13;;;25.38;100.00
4590;BME280;2307;48.448;9.216;2023-08-17T10:35:42;95553.84;;;25.57;100.00
4590;BME280;2307;48.448;9.216;2023-08-17T10:38:09;95550.69;;;25.55;100.00
4590;BME280;2307;48.448;9.216;2023-08-17T10:40:36;95553.09;;;25.77;100.00
4590;BME280;2307;48.448;9.216;2023-08-17T10:43:03;95558.16;;;25.87;100.00
4590;BME280;2307;48.448;9.216;2023-08-17T10:45:30;95559.19;;;25.95;100.00
4590;BME280;2307;48.448;9.216;2023-08-17T10:48:00;95558.31;;;26.11;100.00
4590;BME280;2307;48.448;9.216;2023-08-17T10:50:59;95561.72;;;26.00;100.00
4590;BME280;2307;48.448;9.216;2023-08-17T10:53:26;95555.81;;;26.06;100.00
4590;BME280;2307;48.448;9.216;2023-08-17T10:55:54;95561.16;;;26.35;100.00
4590;BME280;2307;48.448;9.216;2023-08-17T10:58:23;95551.66;;;26.50;100.00
4590;BME280;2307;48.448;9.216;2023-08-17T11:00:53;95558.66;;;26.72;100.00
4590;BME280;2307;48.448;9.216;2023-08-17T11:03:20;95556.72;;;26.72;100.00
4590;BME280;2307;48.448;9.216;2023-08-17T11:05:48;95552.34;;;27.01;100.00
4590;BME280;2307;48.448;9.216;2023-08-17T11:08:23;95556.53;;;27.10;100.00
4590;BME280;2307;48.448;9.216;2023-08-17T11:10:57;95543.25;;;27.29;100.00
4590;BME280;2307;48.448;9.216;2023-08-17T11:13:23;95544.25;;;27.25;100.00
4590;BME280;2307;48.448;9.216;2023-08-17T11:15:50;95547.66;;;27.34;100.00
4590;BME280;2307;48.448;9.216;2023-08-17T11:18:16;95545.22;;;27.65;100.00
4590;BME280;2307;48.448;9.216;2023-08-17T11:20:43;95562.97;;;27.87;100.00
4590;BME280;2307;48.448;9.216;2023-08-17T11:23:09;95558.22;;;28.08;100.00
4590;BME280;2307;48.448;9.216;2023-08-17T11:25:37;95552.63;;;28.29;100.00
4590;BME280;2307;48.448;9.216;2023-08-17T11:28:05;95550.78;;;28.45;100.00
4590;BME280;2307;48.448;9.216;2023-08-17T11:30:33;95538.69;;;28.42;100.00
4590;BME280;2307;48.448;9.216;2023-08-17T11:33:01;95545.50;;;28.36;100.00
4590;BME280;2307;48.448;9.216;2023-08-17T11:35:27;95543.03;;;28.19;100.00
4590;BME280;2307;48.448;9.216;2023-08-17T11:37:54;95542.84;;;28.12;100.00
4590;BME280;2307;48.448;9.216;2023-08-17T11:40:20;95530.72;;;27.97;100.00
4590;BME280;2307;48.448;9.216;2023-08-17T11:42:48;95525.75;;;27.63;100.00
4590;BME280;2307;48.448;9.216;2023-08-17T11:45:14;95528.25;;;27.56;100.00
4590;BME280;2307;48.448;9.216;2023-08-17T11:47:41;95540.81;;;27.49;100.00
4590;BME280;2307;48.448;9.216;2023-08-17T11:50:09;95553.41;;;27.20;100.00
4590;BME280;2307;48.448;9.216;2023-08-17T11:52:36;95554.78;;;27.26;100.00
4590;BME280;2307;48.448;9.216;2023-08-17T11:55:02;95561.28;;;27.13;100.00
4590;BME280;2307;48.448;9.216;2023-08-17T11:57:30;95561.72;;;27.03;100.00
4590;BME280;2307;48.448;9.216;2023-08-17T11:59:58;95555.91;;;26.92;100.00
4590;BME280;2307;48.448;9.216;2023-08-17T12:02:25;95554.47;;;26.74;100.00
4590;BME280;2307;48.448;9.216;2023-08-17T12:04:52;95567.19;;;26.62;100.00
4590;BME280;2307;48.448;9.216;2023-08-17T12:07:19;95565.34;;;26.54;100.00
4590;BME280;2307;48.448;9.216;2023-08-17T12:09:47;95570.69;;;26.21;100.00
4590;BME280;2307;48.448;9.216;2023-08-17T12:12:16;95565.88;;;26.26;100.00
4590;BME280;2307;48.448;9.216;2023-08-17T12:14:47;95567.59;;;26.31;100.00
4590;BME280;2307;48.448;9.216;2023-08-17T12:17:15;95564.16;;;26.13;100.00
4590;BME280;2307;48.448;9.216;2023-08-17T12:19:42;95571.84;;;26.11;100.00
4590;BME280;2307;48.448;9.216;2023-08-17T12:22:10;95561.88;;;26.03;100.00
4590;BME280;2307;48.448;9.216;2023-08-17T12:24:37;95575.31;;;25.91;100.00
4590;BME280;2307;48.448;9.216;2023-08-17T12:27:04;95577.16;;;25.70;100.00
4590;BME280;2307;48.448;9.216;2023-08-17T12:29:31;95574.47;;;25.70;100.00
4590;BME280;2307;48.448;9.216;2023-08-17T12:31:57;95576.06;;;25.71;100.00
4590;BME280;2307;48.448;9.216;2023-08-17T12:34:25;95583.22;;;25.67;100.00
4590;BME280;2307;48.448;9.216;2023-08-17T12:36:51;95578.50;;;25.47;100.00
4590;BME280;2307;48.448;9.216;2023-08-17T12:39:18;95578.25;;;25.31;100.00
4590;BME280;2307;48.448;9.216;2023-08-17T12:41:44;95577.34;;;25.18;100.00
4590;BME280;2307;48.448;9.216;2023-08-17T12:44:11;95580.72;;;25.07;100.00
4590;BME280;2307;48.448;9.216;2023-08-17T12:46:38;95573.91;;;25.01;100.00
4590;BME280;2307;48.448;9.216;2023-08-17T12:49:05;95560.75;;;24.82;100.00
4590;BME280;2307;48.448;9.216;2023-08-17T12:51:33;95539.25;;;24.68;100.00
4590;BME280;2307;48.448;9.216;2023-08-17T12:53:59;95537.53;;;24.55;100.00
4590;BME280;2307;48.448;9.216;2023-08-17T12:56:26;95535.03;;;24.42;100.00
4590;BME280;2307;48.448;9.216;2023-08-17T12:58:52;95547.06;;;24.36;100.00
4590;BME280;2307;48.448;9.216;2023-08-17T13:01:20;95553.91;;;24.33;100.00
4590;BME280;2307;48.448;9.216;2023-08-17T13:03:48;95561.69;;;24.43;100.00
4590;BME280;2307;48.448;9.216;2023-08-17T13:06:14;95585.66;;;24.62;100.00
4590;BME280;2307;48.448;9.216;2023-08-17T13:08:42;95599.50;;;24.69;100.00